sensor_id;sensor_type;location;lat;lon;timestamp;temperature;humidity
26691;DHT22;14307;51.718;8.938;2023-06-26T00:01:34;18.30;99.90
26691;DHT22;14307;51.718;8.938;2023-06-26T00:04:01;18.30;99.90
26691;DHT22;14307;51.718;8.938;2023-06-26T00:06:28;18.30;99.90
26691;DHT22;14307;51.718;8.938;2023-06-26T00:08:56;18.40;99.90
26691;DHT22;14307;51.718;8.938;2023-06-26T00:11:23;18.30;99.90
26691;DHT22;14307;51.718;8.938;2023-06-26T00:13:50;18.40;99.90
26691;DHT22;14307;51.718;8.938;2023-06-26T00:16:17;18.40;99.90
26691;DHT22;14307;51.718;8.938;2023-06-26T00:18:43;18.30;99.90
26691;DHT22;14307;51.718;8.938;2023-06-26T00:21:10;18.30;99.90
26691;DHT22;14307;51.718;8.938;2023-06-26T00:23:37;18.30;99.90
26691;DHT22;14307;51.718;8.938;2023-06-26T00:26:06;18.30;99.90
26691;DHT22;14307;51.718;8.938;2023-06-26T00:28:32;18.30;99.90
26691;DHT22;14307;51.718;8.938;2023-06-26T00:30:59;18.30;99.90
26691;DHT22;14307;51.718;8.938;2023-06-26T00:33:28;18.10;99.90
26691;DHT22;14307;51.718;8.938;2023-06-26T00:35:56;18.00;99.90
26691;DHT22;14307;51.718;8.938;2023-06-26T00:38:23;17.90;99.90
26691;DHT22;14307;51.718;8.938;2023-06-26T00:40:50;17.90;99.90
26691;DHT22;14307;51.718;8.938;2023-06-26T00:43:17;17.90;99.90
26691;DHT22;14307;51.718;8.938;2023-06-26T00:45:44;17.90;99.90
26691;DHT22;14307;51.718;8.938;2023-06-26T00:48:11;17.90;99.90
26691;DHT22;14307;51.718;8.938;2023-06-26T00:50:42;18.00;99.90
26691;DHT22;14307;51.718;8.938;2023-06-26T00:53:11;17.90;99.90
26691;DHT22;14307;51.718;8.938;2023-06-26T00:55:38;18.00;99.90
26691;DHT22;14307;51.718;8.938;2023-06-26T00:58:05;17.80;99.90
26691;DHT22;14307;51.718;8.938;2023-06-26T01:00:32;17.70;99.90
26691;DHT22;14307;51.718;8.938;2023-06-26T01:02:58;17.80;99.90
26691;DHT22;14307;51.718;8.938;2023-06-26T01:05:27;17.90;99.90
26691;DHT22;14307;51.718;8.938;2023-06-26T01:07:57;17.70;99.90
26691;DHT22;14307;51.718;8.938;2023-06-26T01:10:24;17.80;99.90
26691;DHT22;14307;51.718;8.938;2023-06-26T01:12:54;17.70;99.90
26691;DHT22;14307;51.718;8.938;2023-06-26T01:15:21;17.70;99.90
26691;DHT22;14307;51.718;8.938;2023-06-26T01:17:51;17.60;99.90
26691;DHT22;14307;51.718;8.938;2023-06-26T01:20:19;17.60;99.90
26691;DHT22;14307;51.718;8.938;2023-06-26T01:23:15;17.50;99.90
26691;DHT22;14307;51.718;8.938;2023-06-26T01:28:39;17.30;99.90
26691;DHT22;14307;51.718;8.938;2023-06-26T01:31:07;17.30;99.90
26691;DHT22;14307;51.718;8.938;2023-06-26T01:33:35;17.30;99.90
26691;DHT22;14307;51.718;8.938;2023-06-26T01:36:03;17.10;99.90
26691;DHT22;14307;51.718;8.938;2023-06-26T01:38:29;17.20;99.90
26691;DHT22;14307;51.718;8.938;2023-06-26T01:40:56;17.10;99.90
26691;DHT22;14307;51.718;8.938;2023-06-26T01:43:39;17.10;99.90
26691;DHT22;14307;51.718;8.938;2023-06-26T01:46:18;17.00;99.90
26691;DHT22;14307;51.718;8.938;2023-06-26T01:51:38;17.00;99.90
26691;DHT22;14307;51.718;8.938;2023-06-26T01:54:17;17.10;99.90
26691;DHT22;14307;51.718;8.938;2023-06-26T01:56:46;17.10;99.90
26691;DHT22;14307;51.718;8.938;2023-06-26T01:59:14;17.10;99.90
26691;DHT22;14307;51.718;8.938;2023-06-26T02:01:42;17.00;99.90
26691;DHT22;14307;51.718;8.938;2023-06-26T02:04:08;17.00;99.90
26691;DHT22;14307;51.718;8.938;2023-06-26T02:06:35;16.90;99.90
26691;DHT22;14307;51.718;8.938;2023-06-26T02:09:02;16.90;99.90
26691;DHT22;14307;51.718;8.938;2023-06-26T02:11:30;16.90;99.90
26691;DHT22;14307;51.718;8.938;2023-06-26T02:13:57;16.80;99.90
26691;DHT22;14307;51.718;8.938;2023-06-26T02:16:24;16.90;99.90
26691;DHT22;14307;51.718;8.938;2023-06-26T02:18:52;16.90;99.90
26691;DHT22;14307;51.718;8.938;2023-06-26T02:21:22;16.90;99.90
26691;DHT22;14307;51.718;8.938;2023-06-26T02:23:49;16.90;99.90
26691;DHT22;14307;51.718;8.938;2023-06-26T02:26:16;16.80;99.90
26691;DHT22;14307;51.718;8.938;2023-06-26T02:28:42;16.80;99.90
26691;DHT22;14307;51.718;8.938;2023-06-26T02:31:11;16.80;99.90
26691;DHT22;14307;51.718;8.938;2023-06-26T02:33:38;16.70;99.90
26691;DHT22;14307;51.718;8.938;2023-06-26T02:36:06;16.80;99.90
26691;DHT22;14307;51.718;8.938;2023-06-26T02:38:33;16.70;99.90
26691;DHT22;14307;51.718;8.938;2023-06-26T02:41:01;16.60;99.90
26691;DHT22;14307;51.718;8.938;2023-06-26T02:43:28;16.70;99.90
26691;DHT22;14307;51.718;8.938;2023-06-26T02:45:55;16.70;99.90
26691;DHT22;14307;51.718;8.938;2023-06-26T02:48:22;16.60;99.90
26691;DHT22;14307;51.718;8.938;2023-06-26T02:50:49;16.70;99.90
26691;DHT22;14307;51.718;8.938;2023-06-26T02:53:16;16.70;99.90
26691;DHT22;14307;51.718;8.938;2023-06-26T02:55:45;16.60;99.90
26691;DHT22;14307;51.718;8.938;2023-06-26T02:58:14;16.60;99.90
26691;DHT22;14307;51.718;8.938;2023-06-26T03:00:41;16.50;99.90
26691;DHT22;14307;51.718;8.938;2023-06-26T03:03:14;16.50;99.90
26691;DHT22;14307;51.718;8.938;2023-06-26T03:05:40;16.40;99.90
26691;DHT22;14307;51.718;8.938;2023-06-26T03:08:07;16.50;99.90
26691;DHT22;14307;51.718;8.938;2023-06-26T03:10:34;16.60;99.90
26691;DHT22;14307;51.718;8.938;2023-06-26T03:13:01;16.50;99.90
26691;DHT22;14307;51.718;8.938;2023-06-26T03:15:28;16.50;99.90
26691;DHT22;14307;51.718;8.938;2023-06-26T03:17:55;16.50;99.90
26691;DHT22;14307;51.718;8.938;2023-06-26T03:20:25;16.50;99.90
26691;DHT22;14307;51.718;8.938;2023-06-26T03:22:53;16.50;99.90
26691;DHT22;14307;51.718;8.938;2023-06-26T03:25:21;16.60;99.90
26691;DHT22;14307;51.718;8.938;2023-06-26T03:27:52;16.60;99.90
26691;DHT22;14307;51.718;8.938;2023-06-26T03:30:19;16.70;99.90
26691;DHT22;14307;51.718;8.938;2023-06-26T03:32:49;16.70;99.90
26691;DHT22;14307;51.718;8.938;2023-06-26T03:35:17;16.80;99.90
26691;DHT22;14307;51.718;8.938;2023-06-26T03:37:44;16.90;99.90
26691;DHT22;14307;51.718;8.938;2023-06-26T03:40:11;16.90;99.90
26691;DHT22;14307;51.718;8.938;2023-06-26T03:42:38;16.90;99.90
26691;DHT22;14307;51.718;8.938;2023-06-26T03:45:05;16.90;99.90
26691;DHT22;14307;51.718;8.938;2023-06-26T03:47:33;17.00;99.90
26691;DHT22;14307;51.718;8.938;2023-06-26T03:50:05;17.00;99.90
26691;DHT22;14307;51.718;8.938;2023-06-26T03:52:32;17.00;99.90
26691;DHT22;14307;51.718;8.938;2023-06-26T03:54:59;17.00;99.90
26691;DHT22;14307;51.718;8.938;2023-06-26T03:57:26;17.00;99.90
26691;DHT22;14307;51.718;8.938;2023-06-26T03:59:53;17.10;99.90
26691;DHT22;14307;51.718;8.938;2023-06-26T04:02:21;17.10;99.90
26691;DHT22;14307;51.718;8.938;2023-06-26T04:04:48;17.10;99.90
26691;DHT22;14307;51.718;8.938;2023-06-26T04:07:15;17.10;99.90
26691;DHT22;14307;51.718;8.938;2023-06-26T04:09:42;17.00;99.90
26691;DHT22;14307;51.718;8.938;2023-06-26T04:12:09;17.10;99.90
26691;DHT22;14307;51.718;8.938;2023-06-26T04:14:36;17.20;99.90
26691;DHT22;14307;51.718;8.938;2023-06-26T04:17:03;17.20;99.90
26691;DHT22;14307;51.718;8.938;2023-06-26T04:19:30;17.20;99.90
26691;DHT22;14307;51.718;8.938;2023-06-26T04:21:57;17.40;99.90
26691;DHT22;14307;51.718;8.938;2023-06-26T04:24:24;17.50;99.90
26691;DHT22;14307;51.718;8.938;2023-06-26T04:26:51;17.60;99.90
26691;DHT22;14307;51.718;8.938;2023-06-26T04:29:18;17.60;99.90
26691;DHT22;14307;51.718;8.938;2023-06-26T04:31:45;17.80;99.90
26691;DHT22;14307;51.718;8.938;2023-06-26T04:34:13;18.00;99.90
26691;DHT22;14307;51.718;8.938;2023-06-26T04:36:40;18.30;99.90
26691;DHT22;14307;51.718;8.938;2023-06-26T04:39:07;18.80;99.90
26691;DHT22;14307;51.718;8.938;2023-06-26T04:41:33;19.20;99.90
26691;DHT22;14307;51.718;8.938;2023-06-26T04:44:01;19.70;99.90
26691;DHT22;14307;51.718;8.938;2023-06-26T04:46:28;20.20;99.90
26691;DHT22;14307;51.718;8.938;2023-06-26T04:48:55;20.50;99.90
26691;DHT22;14307;51.718;8.938;2023-06-26T04:51:25;20.80;99.90
26691;DHT22;14307;51.718;8.938;2023-06-26T04:53:53;20.90;99.90
26691;DHT22;14307;51.718;8.938;2023-06-26T04:56:20;21.00;99.90
26691;DHT22;14307;51.718;8.938;2023-06-26T04:58:47;20.80;99.90
26691;DHT22;14307;51.718;8.938;2023-06-26T05:01:13;20.90;99.90
26691;DHT22;14307;51.718;8.938;2023-06-26T05:03:40;20.90;99.90
26691;DHT22;14307;51.718;8.938;2023-06-26T05:06:08;20.90;99.90
26691;DHT22;14307;51.718;8.938;2023-06-26T05:08:35;20.80;99.90
26691;DHT22;14307;51.718;8.938;2023-06-26T05:11:02;20.70;99.90
26691;DHT22;14307;51.718;8.938;2023-06-26T05:13:30;20.80;99.90
26691;DHT22;14307;51.718;8.938;2023-06-26T05:15:56;20.70;99.90
26691;DHT22;14307;51.718;8.938;2023-06-26T05:18:24;20.80;99.90
26691;DHT22;14307;51.718;8.938;2023-06-26T05:20:51;21.10;99.90
26691;DHT22;14307;51.718;8.938;2023-06-26T05:23:18;21.40;99.90
26691;DHT22;14307;51.718;8.938;2023-06-26T05:25:45;21.70;99.90
26691;DHT22;14307;51.718;8.938;2023-06-26T05:28:13;21.90;99.90
26691;DHT22;14307;51.718;8.938;2023-06-26T05:30:42;22.30;99.90
26691;DHT22;14307;51.718;8.938;2023-06-26T05:33:11;22.60;99.90
26691;DHT22;14307;51.718;8.938;2023-06-26T05:35:39;22.80;99.90
26691;DHT22;14307;51.718;8.938;2023-06-26T05:38:06;23.10;99.90
26691;DHT22;14307;51.718;8.938;2023-06-26T05:40:33;23.40;99.90
26691;DHT22;14307;51.718;8.938;2023-06-26T05:43:01;23.80;99.90
26691;DHT22;14307;51.718;8.938;2023-06-26T05:45:28;24.00;99.90
26691;DHT22;14307;51.718;8.938;2023-06-26T05:47:55;24.20;99.90
26691;DHT22;14307;51.718;8.938;2023-06-26T05:50:22;24.40;99.90
26691;DHT22;14307;51.718;8.938;2023-06-26T05:52:50;24.60;99.90
26691;DHT22;14307;51.718;8.938;2023-06-26T05:55:17;24.70;99.90
26691;DHT22;14307;51.718;8.938;2023-06-26T05:57:45;24.90;99.90
26691;DHT22;14307;51.718;8.938;2023-06-26T06:00:13;25.30;99.90
26691;DHT22;14307;51.718;8.938;2023-06-26T06:02:42;25.70;99.90
26691;DHT22;14307;51.718;8.938;2023-06-26T06:05:09;25.80;99.90
26691;DHT22;14307;51.718;8.938;2023-06-26T06:07:36;25.90;99.90
26691;DHT22;14307;51.718;8.938;2023-06-26T06:10:04;26.30;99.90
26691;DHT22;14307;51.718;8.938;2023-06-26T06:12:31;26.50;99.90
26691;DHT22;14307;51.718;8.938;2023-06-26T06:14:57;26.80;99.90
26691;DHT22;14307;51.718;8.938;2023-06-26T06:17:24;27.00;99.90
26691;DHT22;14307;51.718;8.938;2023-06-26T06:19:51;27.00;99.90
26691;DHT22;14307;51.718;8.938;2023-06-26T06:22:18;27.20;99.90
26691;DHT22;14307;51.718;8.938;2023-06-26T06:24:45;27.00;99.90
26691;DHT22;14307;51.718;8.938;2023-06-26T06:27:12;27.20;99.90
26691;DHT22;14307;51.718;8.938;2023-06-26T06:29:39;26.90;99.90
26691;DHT22;14307;51.718;8.938;2023-06-26T06:32:07;26.80;99.90
26691;DHT22;14307;51.718;8.938;2023-06-26T06:34:34;26.90;99.90
26691;DHT22;14307;51.718;8.938;2023-06-26T06:37:02;26.60;99.90
26691;DHT22;14307;51.718;8.938;2023-06-26T06:39:29;26.30;99.90
26691;DHT22;14307;51.718;8.938;2023-06-26T06:41:55;26.40;99.90
26691;DHT22;14307;51.718;8.938;2023-06-26T06:44:22;26.20;99.90
26691;DHT22;14307;51.718;8.938;2023-06-26T06:46:49;26.20;99.90
26691;DHT22;14307;51.718;8.938;2023-06-26T06:49:16;26.30;99.90
26691;DHT22;14307;51.718;8.938;2023-06-26T06:51:42;26.30;99.90
26691;DHT22;14307;51.718;8.938;2023-06-26T06:54:09;26.40;99.90
26691;DHT22;14307;51.718;8.938;2023-06-26T06:56:36;26.30;99.90
26691;DHT22;14307;51.718;8.938;2023-06-26T06:59:03;26.00;99.90
26691;DHT22;14307;51.718;8.938;2023-06-26T07:01:30;26.10;99.90
26691;DHT22;14307;51.718;8.938;2023-06-26T07:03:56;26.00;99.90
26691;DHT22;14307;51.718;8.938;2023-06-26T07:06:24;26.00;99.90
26691;DHT22;14307;51.718;8.938;2023-06-26T07:08:51;26.10;99.90
26691;DHT22;14307;51.718;8.938;2023-06-26T07:11:18;26.30;99.90
26691;DHT22;14307;51.718;8.938;2023-06-26T07:13:45;26.30;99.90
26691;DHT22;14307;51.718;8.938;2023-06-26T07:16:11;26.10;99.90
26691;DHT22;14307;51.718;8.938;2023-06-26T07:18:38;25.90;99.90
26691;DHT22;14307;51.718;8.938;2023-06-26T07:21:05;25.70;99.90
26691;DHT22;14307;51.718;8.938;2023-06-26T07:23:32;25.70;99.90
26691;DHT22;14307;51.718;8.938;2023-06-26T07:25:59;25.80;99.90
26691;DHT22;14307;51.718;8.938;2023-06-26T07:28:25;25.70;99.90
26691;DHT22;14307;51.718;8.938;2023-06-26T07:30:52;25.70;99.90
26691;DHT22;14307;51.718;8.938;2023-06-26T07:33:19;25.60;99.90
26691;DHT22;14307;51.718;8.938;2023-06-26T07:35:47;25.60;99.90
26691;DHT22;14307;51.718;8.938;2023-06-26T07:38:13;25.50;99.90
26691;DHT22;14307;51.718;8.938;2023-06-26T07:40:40;25.60;99.90
26691;DHT22;14307;51.718;8.938;2023-06-26T07:43:07;25.40;99.90
26691;DHT22;14307;51.718;8.938;2023-06-26T07:45:34;25.50;99.90
26691;DHT22;14307;51.718;8.938;2023-06-26T07:48:01;25.40;99.90
26691;DHT22;14307;51.718;8.938;2023-06-26T07:50:28;25.20;99.90
26691;DHT22;14307;51.718;8.938;2023-06-26T07:52:55;25.10;99.90
26691;DHT22;14307;51.718;8.938;2023-06-26T07:55:22;25.10;99.90
26691;DHT22;14307;51.718;8.938;2023-06-26T07:57:49;25.00;99.90
26691;DHT22;14307;51.718;8.938;2023-06-26T08:00:18;24.90;99.90
26691;DHT22;14307;51.718;8.938;2023-06-26T08:02:45;25.00;99.90
26691;DHT22;14307;51.718;8.938;2023-06-26T08:05:12;24.70;99.90
26691;DHT22;14307;51.718;8.938;2023-06-26T08:07:39;24.80;99.90
26691;DHT22;14307;51.718;8.938;2023-06-26T08:10:06;25.00;99.90
26691;DHT22;14307;51.718;8.938;2023-06-26T08:12:33;25.00;99.90
26691;DHT22;14307;51.718;8.938;2023-06-26T08:15:00;25.40;99.90
26691;DHT22;14307;51.718;8.938;2023-06-26T08:17:29;25.70;99.90
26691;DHT22;14307;51.718;8.938;2023-06-26T08:19:56;25.40;99.90
26691;DHT22;14307;51.718;8.938;2023-06-26T08:22:23;25.00;99.90
26691;DHT22;14307;51.718;8.938;2023-06-26T08:24:50;24.90;99.90
26691;DHT22;14307;51.718;8.938;2023-06-26T08:27:17;24.80;99.90
26691;DHT22;14307;51.718;8.938;2023-06-26T08:29:43;24.90;99.90
26691;DHT22;14307;51.718;8.938;2023-06-26T08:32:10;24.50;99.90
26691;DHT22;14307;51.718;8.938;2023-06-26T08:34:37;24.10;99.90
26691;DHT22;14307;51.718;8.938;2023-06-26T08:37:04;23.90;99.90
26691;DHT22;14307;51.718;8.938;2023-06-26T08:39:32;23.70;99.90
26691;DHT22;14307;51.718;8.938;2023-06-26T08:41:59;23.70;99.90
26691;DHT22;14307;51.718;8.938;2023-06-26T08:44:26;23.80;99.90
26691;DHT22;14307;51.718;8.938;2023-06-26T08:46:53;24.10;99.90
26691;DHT22;14307;51.718;8.938;2023-06-26T08:49:43;24.30;99.90
26691;DHT22;14307;51.718;8.938;2023-06-26T08:52:19;24.20;99.90
26691;DHT22;14307;51.718;8.938;2023-06-26T08:54:54;24.00;99.90
26691;DHT22;14307;51.718;8.938;2023-06-26T08:57:23;23.70;99.90
26691;DHT22;14307;51.718;8.938;2023-06-26T08:59:50;23.50;99.90
26691;DHT22;14307;51.718;8.938;2023-06-26T09:02:18;23.50;99.90
26691;DHT22;14307;51.718;8.938;2023-06-26T09:04:48;23.30;99.90
26691;DHT22;14307;51.718;8.938;2023-06-26T09:07:16;23.20;99.90
26691;DHT22;14307;51.718;8.938;2023-06-26T09:09:44;23.00;99.90
26691;DHT22;14307;51.718;8.938;2023-06-26T09:12:10;22.80;99.90
26691;DHT22;14307;51.718;8.938;2023-06-26T09:14:38;23.00;99.90
26691;DHT22;14307;51.718;8.938;2023-06-26T09:17:04;23.30;99.90
26691;DHT22;14307;51.718;8.938;2023-06-26T09:19:31;23.70;99.90
26691;DHT22;14307;51.718;8.938;2023-06-26T09:22:00;24.20;99.90
26691;DHT22;14307;51.718;8.938;2023-06-26T09:24:27;24.30;99.90
26691;DHT22;14307;51.718;8.938;2023-06-26T09:26:54;24.00;99.90
26691;DHT22;14307;51.718;8.938;2023-06-26T09:29:46;23.70;99.90
26691;DHT22;14307;51.718;8.938;2023-06-26T09:32:13;23.50;99.90
26691;DHT22;14307;51.718;8.938;2023-06-26T09:34:42;23.30;99.90
26691;DHT22;14307;51.718;8.938;2023-06-26T09:37:13;23.30;99.90
26691;DHT22;14307;51.718;8.938;2023-06-26T09:39:40;23.10;99.90
26691;DHT22;14307;51.718;8.938;2023-06-26T09:42:07;23.50;99.90
26691;DHT22;14307;51.718;8.938;2023-06-26T09:44:34;23.80;99.90
26691;DHT22;14307;51.718;8.938;2023-06-26T09:47:02;23.70;99.90
26691;DHT22;14307;51.718;8.938;2023-06-26T09:49:31;23.60;99.90
26691;DHT22;14307;51.718;8.938;2023-06-26T09:52:00;23.30;99.90
26691;DHT22;14307;51.718;8.938;2023-06-26T09:54:27;23.30;99.90
26691;DHT22;14307;51.718;8.938;2023-06-26T09:57:07;23.70;99.90
26691;DHT22;14307;51.718;8.938;2023-06-26T09:59:36;24.20;99.90
26691;DHT22;14307;51.718;8.938;2023-06-26T10:02:03;24.40;99.90
26691;DHT22;14307;51.718;8.938;2023-06-26T10:04:30;24.30;99.90
26691;DHT22;14307;51.718;8.938;2023-06-26T10:07:02;24.30;99.90
26691;DHT22;14307;51.718;8.938;2023-06-26T10:09:31;24.30;99.90
26691;DHT22;14307;51.718;8.938;2023-06-26T10:12:06;24.10;99.90
26691;DHT22;14307;51.718;8.938;2023-06-26T10:14:35;24.20;99.90
26691;DHT22;14307;51.718;8.938;2023-06-26T10:17:14;24.20;99.90
26691;DHT22;14307;51.718;8.938;2023-06-26T10:19:43;24.10;99.90
26691;DHT22;14307;51.718;8.938;2023-06-26T10:22:17;24.00;99.90
26691;DHT22;14307;51.718;8.938;2023-06-26T10:24:47;23.90;99.90
26691;DHT22;14307;51.718;8.938;2023-06-26T10:27:18;23.70;99.90
26691;DHT22;14307;51.718;8.938;2023-06-26T10:29:49;23.60;99.90
26691;DHT22;14307;51.718;8.938;2023-06-26T10:32:19;23.50;99.90
26691;DHT22;14307;51.718;8.938;2023-06-26T10:34:47;23.30;99.90
26691;DHT22;14307;51.718;8.938;2023-06-26T10:37:14;23.50;99.90
26691;DHT22;14307;51.718;8.938;2023-06-26T10:39:48;23.70;99.90
26691;DHT22;14307;51.718;8.938;2023-06-26T10:42:19;23.90;99.90
26691;DHT22;14307;51.718;8.938;2023-06-26T10:44:48;23.90;99.90
26691;DHT22;14307;51.718;8.938;2023-06-26T10:47:31;23.80;99.90
26691;DHT22;14307;51.718;8.938;2023-06-26T10:55:35;23.20;99.90
26691;DHT22;14307;51.718;8.938;2023-06-26T10:58:02;23.20;99.90
26691;DHT22;14307;51.718;8.938;2023-06-26T11:00:29;23.30;99.90
26691;DHT22;14307;51.718;8.938;2023-06-26T11:02:56;23.50;99.90
26691;DHT22;14307;51.718;8.938;2023-06-26T11:05:24;24.00;99.90
26691;DHT22;14307;51.718;8.938;2023-06-26T11:08:07;24.50;99.90
26691;DHT22;14307;51.718;8.938;2023-06-26T11:10:54;24.70;99.90
26691;DHT22;14307;51.718;8.938;2023-06-26T11:13:26;24.60;99.90
26691;DHT22;14307;51.718;8.938;2023-06-26T11:15:54;24.90;99.90
26691;DHT22;14307;51.718;8.938;2023-06-26T11:18:24;25.10;99.90
26691;DHT22;14307;51.718;8.938;2023-06-26T11:20:51;25.20;99.90
26691;DHT22;14307;51.718;8.938;2023-06-26T11:23:22;25.10;99.90
26691;DHT22;14307;51.718;8.938;2023-06-26T11:25:51;25.00;99.90
26691;DHT22;14307;51.718;8.938;2023-06-26T11:28:17;24.80;99.90
26691;DHT22;14307;51.718;8.938;2023-06-26T11:30:44;24.70;99.90
26691;DHT22;14307;51.718;8.938;2023-06-26T11:33:11;24.60;99.90
26691;DHT22;14307;51.718;8.938;2023-06-26T11:35:38;24.80;99.90
26691;DHT22;14307;51.718;8.938;2023-06-26T11:38:06;24.80;99.90
26691;DHT22;14307;51.718;8.938;2023-06-26T11:40:34;25.00;99.90
26691;DHT22;14307;51.718;8.938;2023-06-26T11:43:02;25.30;99.90
26691;DHT22;14307;51.718;8.938;2023-06-26T11:45:31;25.30;99.90
26691;DHT22;14307;51.718;8.938;2023-06-26T11:47:58;25.30;99.90
26691;DHT22;14307;51.718;8.938;2023-06-26T11:50:26;25.50;99.90
26691;DHT22;14307;51.718;8.938;2023-06-26T11:52:54;25.40;99.90
26691;DHT22;14307;51.718;8.938;2023-06-26T11:55:23;25.30;99.90
26691;DHT22;14307;51.718;8.938;2023-06-26T11:57:53;25.30;99.90
26691;DHT22;14307;51.718;8.938;2023-06-26T12:00:23;24.80;99.90
26691;DHT22;14307;51.718;8.938;2023-06-26T12:02:50;24.90;99.90
26691;DHT22;14307;51.718;8.938;2023-06-26T12:05:19;24.80;99.90
26691;DHT22;14307;51.718;8.938;2023-06-26T12:07:47;24.70;99.90
26691;DHT22;14307;51.718;8.938;2023-06-26T12:10:15;24.50;99.90
26691;DHT22;14307;51.718;8.938;2023-06-26T12:12:42;24.60;99.90
26691;DHT22;14307;51.718;8.938;2023-06-26T12:15:15;24.60;99.90
26691;DHT22;14307;51.718;8.938;2023-06-26T12:17:42;24.70;99.90
26691;DHT22;14307;51.718;8.938;2023-06-26T12:20:22;25.00;99.90
26691;DHT22;14307;51.718;8.938;2023-06-26T12:22:50;25.50;99.90
26691;DHT22;14307;51.718;8.938;2023-06-26T12:25:23;25.70;99.90
26691;DHT22;14307;51.718;8.938;2023-06-26T12:27:50;25.60;99.90
26691;DHT22;14307;51.718;8.938;2023-06-26T12:30:17;25.20;99.90
26691;DHT22;14307;51.718;8.938;2023-06-26T12:32:45;24.70;99.90
26691;DHT22;14307;51.718;8.938;2023-06-26T12:35:13;24.00;99.90
26691;DHT22;14307;51.718;8.938;2023-06-26T12:37:41;23.90;99.90
26691;DHT22;14307;51.718;8.938;2023-06-26T12:40:20;24.20;99.90
26691;DHT22;14307;51.718;8.938;2023-06-26T12:42:50;24.20;99.90
26691;DHT22;14307;51.718;8.938;2023-06-26T12:45:17;24.30;99.90
26691;DHT22;14307;51.718;8.938;2023-06-26T12:47:46;24.40;99.90
26691;DHT22;14307;51.718;8.938;2023-06-26T12:50:13;24.70;99.90
26691;DHT22;14307;51.718;8.938;2023-06-26T12:52:40;24.70;99.90
26691;DHT22;14307;51.718;8.938;2023-06-26T12:55:07;25.10;99.90
26691;DHT22;14307;51.718;8.938;2023-06-26T12:57:34;25.10;99.90
26691;DHT22;14307;51.718;8.938;2023-06-26T13:00:01;24.80;99.90
26691;DHT22;14307;51.718;8.938;2023-06-26T13:02:29;24.60;99.90
26691;DHT22;14307;51.718;8.938;2023-06-26T13:04:56;24.20;99.90
26691;DHT22;14307;51.718;8.938;2023-06-26T13:07:23;24.00;99.90
26691;DHT22;14307;51.718;8.938;2023-06-26T13:09:52;24.20;99.90
26691;DHT22;14307;51.718;8.938;2023-06-26T13:12:18;24.60;99.90
26691;DHT22;14307;51.718;8.938;2023-06-26T13:14:45;24.90;99.90
26691;DHT22;14307;51.718;8.938;2023-06-26T13:17:12;25.30;99.90
26691;DHT22;14307;51.718;8.938;2023-06-26T13:19:39;25.10;99.90
26691;DHT22;14307;51.718;8.938;2023-06-26T13:22:06;25.00;99.90
26691;DHT22;14307;51.718;8.938;2023-06-26T13:24:33;24.90;99.90
26691;DHT22;14307;51.718;8.938;2023-06-26T13:27:00;24.90;99.90
26691;DHT22;14307;51.718;8.938;2023-06-26T13:29:27;25.00;99.90
26691;DHT22;14307;51.718;8.938;2023-06-26T13:31:54;24.90;99.90
26691;DHT22;14307;51.718;8.938;2023-06-26T13:34:23;25.00;99.90
26691;DHT22;14307;51.718;8.938;2023-06-26T13:36:51;24.90;99.90
26691;DHT22;14307;51.718;8.938;2023-06-26T13:39:18;24.70;99.90
26691;DHT22;14307;51.718;8.938;2023-06-26T13:41:45;24.60;99.90
26691;DHT22;14307;51.718;8.938;2023-06-26T13:44:12;24.40;99.90
26691;DHT22;14307;51.718;8.938;2023-06-26T13:46:57;24.10;99.90
26691;DHT22;14307;51.718;8.938;2023-06-26T13:49:24;24.10;99.90
26691;DHT22;14307;51.718;8.938;2023-06-26T13:51:51;24.10;99.90
26691;DHT22;14307;51.718;8.938;2023-06-26T13:54:19;24.00;99.90
26691;DHT22;14307;51.718;8.938;2023-06-26T13:56:45;24.00;99.90
26691;DHT22;14307;51.718;8.938;2023-06-26T13:59:12;24.00;99.90
26691;DHT22;14307;51.718;8.938;2023-06-26T14:01:39;24.30;99.90
26691;DHT22;14307;51.718;8.938;2023-06-26T14:04:09;24.60;99.90
26691;DHT22;14307;51.718;8.938;2023-06-26T14:06:36;24.60;99.90
26691;DHT22;14307;51.718;8.938;2023-06-26T14:09:02;24.40;99.90
26691;DHT22;14307;51.718;8.938;2023-06-26T14:11:30;24.10;99.90
26691;DHT22;14307;51.718;8.938;2023-06-26T14:13:58;24.00;99.90
26691;DHT22;14307;51.718;8.938;2023-06-26T14:16:27;24.10;99.90
26691;DHT22;14307;51.718;8.938;2023-06-26T14:18:55;24.00;99.90
26691;DHT22;14307;51.718;8.938;2023-06-26T14:21:22;23.70;99.90
26691;DHT22;14307;51.718;8.938;2023-06-26T14:23:51;23.30;99.90
26691;DHT22;14307;51.718;8.938;2023-06-26T14:26:18;23.30;99.90
26691;DHT22;14307;51.718;8.938;2023-06-26T14:28:45;23.20;99.90
26691;DHT22;14307;51.718;8.938;2023-06-26T14:31:12;23.00;99.90
26691;DHT22;14307;51.718;8.938;2023-06-26T14:33:39;22.80;99.90
26691;DHT22;14307;51.718;8.938;2023-06-26T14:36:06;22.90;99.90
26691;DHT22;14307;51.718;8.938;2023-06-26T14:38:32;23.00;99.90
26691;DHT22;14307;51.718;8.938;2023-06-26T14:40:59;23.30;99.90
26691;DHT22;14307;51.718;8.938;2023-06-26T14:43:26;23.50;99.90
26691;DHT22;14307;51.718;8.938;2023-06-26T14:45:53;23.70;99.90
26691;DHT22;14307;51.718;8.938;2023-06-26T14:48:21;23.70;99.90
26691;DHT22;14307;51.718;8.938;2023-06-26T14:50:47;23.90;99.90
26691;DHT22;14307;51.718;8.938;2023-06-26T14:53:14;24.10;99.90
26691;DHT22;14307;51.718;8.938;2023-06-26T14:55:41;24.00;99.90
26691;DHT22;14307;51.718;8.938;2023-06-26T14:58:08;23.50;99.90
26691;DHT22;14307;51.718;8.938;2023-06-26T15:00:35;23.10;99.90
26691;DHT22;14307;51.718;8.938;2023-06-26T15:03:02;23.00;99.90
26691;DHT22;14307;51.718;8.938;2023-06-26T15:05:29;22.80;99.90
26691;DHT22;14307;51.718;8.938;2023-06-26T15:07:56;22.90;99.90
26691;DHT22;14307;51.718;8.938;2023-06-26T15:10:22;22.90;99.90
26691;DHT22;14307;51.718;8.938;2023-06-26T15:12:52;23.00;99.90
26691;DHT22;14307;51.718;8.938;2023-06-26T15:15:19;23.00;99.90
26691;DHT22;14307;51.718;8.938;2023-06-26T15:17:46;22.80;99.90
26691;DHT22;14307;51.718;8.938;2023-06-26T15:20:13;22.70;99.90
26691;DHT22;14307;51.718;8.938;2023-06-26T15:22:39;22.80;99.90
26691;DHT22;14307;51.718;8.938;2023-06-26T15:25:07;23.20;99.90
26691;DHT22;14307;51.718;8.938;2023-06-26T15:27:34;23.30;99.90
26691;DHT22;14307;51.718;8.938;2023-06-26T15:30:01;23.10;99.90
26691;DHT22;14307;51.718;8.938;2023-06-26T15:32:28;23.00;99.90
26691;DHT22;14307;51.718;8.938;2023-06-26T15:34:55;23.20;99.90
26691;DHT22;14307;51.718;8.938;2023-06-26T15:37:22;23.50;99.90
26691;DHT22;14307;51.718;8.938;2023-06-26T15:39:49;23.60;99.90
26691;DHT22;14307;51.718;8.938;2023-06-26T15:42:16;23.60;99.90
26691;DHT22;14307;51.718;8.938;2023-06-26T15:44:43;23.50;99.90
26691;DHT22;14307;51.718;8.938;2023-06-26T15:47:10;23.40;99.90